Phillips, Nebraska
Current Conditions -  °F | °C
As of 7:53 AM on Friday 31 Oct 2014 (Local Time) from KGRI Reporting Station
Clear Clear  
Wind Chill: 17°   Ceiling: Unl
Heat Index: 24°   Visibility: 10mi
Dew Point: 18°   Wind: 6mph
Humidity: 77%   Direction: 30°NNE
Pressure: 30.55"   Gusts: NA
Location:  40.9°N, 98.21°W
Report Text: KGRI 311253Z 03005KT 10SM CLR M04/M08 A3055 RMK AO2 SLP361 T10441078
Loading
Personal Weather Stations






























Interactive Weather Map
Tropical Storm Tracking
New forecast layout! Learn more

10-Day Weather Forecast

Advertisements
Track Severe Weather on mobile